Time;durP1;ratioP1;P1;durP2;ratioP2;P2;SDS_P1;SDS_P2;PMS_P1;PMS_P2;Temp;Humidity;BMP_temperature;BMP_pressure;BME280_temperature;BME280_humidity;BME280_pressure;Samples;Min_cycle;Max_cycle;Signal;HPM_P1;HPM_P2
2021/11/14 00:00:00;;;;;;;24.58;7.57;;;29.80;80.00;;;;;;5098949;28;20024;-50
2021/11/14 00:02:26;;;;;;;23.38;7.75;;;29.80;79.80;;;;;;5106014;28;20051;-51
2021/11/14 00:04:53;;;;;;;28.85;7.60;;;29.80;80.00;;;;;;5106419;28;20054;-55
2021/11/14 00:07:19;;;;;;;34.28;7.72;;;29.80;80.10;;;;;;5106063;28;20020;-58
2021/11/14 00:09:46;;;;;;;30.42;6.75;;;29.80;80.10;;;;;;5106424;28;20024;-52
2021/11/14 00:12:13;;;;;;;31.38;6.80;;;29.80;80.10;;;;;;5105691;28;20016;-54
2021/11/14 00:14:40;;;;;;;23.75;6.57;;;29.70;79.80;;;;;;5106327;28;20020;-54
2021/11/14 00:17:06;;;;;;;17.02;6.15;;;29.70;80.20;;;;;;5105185;28;20044;-57
2021/11/14 00:19:33;;;;;;;28.48;6.35;;;29.70;80.10;;;;;;5105923;28;20047;-56
2021/11/14 00:22:02;;;;;;;29.85;6.97;;;29.70;80.00;;;;;;5105629;28;20024;-51
2021/11/14 00:24:28;;;;;;;29.30;6.60;;;29.70;80.20;;;;;;5106066;28;20020;-57
2021/11/14 00:26:55;;;;;;;30.92;6.85;;;29.60;80.30;;;;;;5105430;28;20073;-54
2021/11/14 00:29:21;;;;;;;35.72;6.60;;;29.60;80.20;;;;;;5105870;28;20069;-52
2021/11/14 00:31:48;;;;;;;29.65;6.65;;;29.60;80.30;;;;;;5105449;28;20028;-55
2021/11/14 00:34:15;;;;;;;31.70;6.45;;;29.60;80.20;;;;;;5105147;28;20091;-48
2021/11/14 00:36:42;;;;;;;25.85;6.85;;;29.60;80.30;;;;;;5105523;28;20034;-55
2021/11/14 00:39:18;;;;;;;33.90;7.00;;;29.60;80.20;;;;;;5105676;28;20088;-52
2021/11/14 00:41:47;;;;;;;28.85;7.13;;;29.60;80.10;;;;;;5105148;28;20260;-52
2021/11/14 00:44:15;;;;;;;27.80;6.55;;;29.60;80.10;;;;;;5105661;28;20038;-52
2021/11/14 00:46:42;;;;;;;58.45;7.63;;;29.60;80.00;;;;;;5105268;28;20028;-51
2021/11/14 00:49:08;;;;;;;26.10;6.97;;;29.60;79.60;;;;;;5105512;28;20051;-52
2021/11/14 00:51:35;;;;;;;27.23;6.13;;;29.50;79.30;;;;;;5105022;28;20216;-54
2021/11/14 00:54:04;;;;;;;18.92;5.70;;;29.50;79.40;;;;;;5105312;28;20024;-52
2021/11/14 00:56:31;;;;;;;31.17;6.05;;;29.50;79.20;;;;;;5105335;28;20031;-52
2021/11/14 00:58:58;;;;;;;24.55;6.40;;;29.40;79.20;;;;;;5105337;28;20027;-57
2021/11/14 01:01:26;;;;;;;18.85;5.80;;;29.40;79.10;;;;;;5104723;28;20051;-49
2021/11/14 01:03:53;;;;;;;26.05;5.90;;;29.40;79.10;;;;;;5104962;28;20169;-48
2021/11/14 01:06:20;;;;;;;22.23;5.55;;;29.40;79.10;;;;;;5105302;28;20024;-48
2021/11/14 01:08:47;;;;;;;21.33;7.50;;;29.40;79.10;;;;;;5105395;28;20126;-54
2021/11/14 01:11:15;;;;;;;24.80;8.50;;;29.40;79.10;;;;;;5104791;28;20024;-51
2021/11/14 01:13:42;;;;;;;34.70;9.73;;;29.40;79.20;;;;;;5103718;28;20316;-50
2021/11/14 01:16:11;;;;;;;29.52;13.07;;;29.40;79.20;;;;;;5104794;28;20022;-52
2021/11/14 01:18:38;;;;;;;34.00;11.68;;;29.40;79.20;;;;;;5104850;28;20043;-49
2021/11/14 01:21:07;;;;;;;26.83;11.68;;;29.40;79.00;;;;;;5104559;28;20023;-47
2021/11/14 01:23:34;;;;;;;37.28;11.25;;;29.40;78.80;;;;;;5104724;28;20031;-50
2021/11/14 01:26:03;;;;;;;29.00;13.15;;;29.30;78.80;;;;;;5104565;28;20023;-50
2021/11/14 01:28:29;;;;;;;30.45;12.88;;;29.40;78.80;;;;;;5095484;28;20033;-49
2021/11/14 01:30:57;;;;;;;28.85;15.10;;;29.30;78.70;;;;;;5104778;28;20024;-49
2021/11/14 01:33:27;;;;;;;33.90;20.60;;;29.30;78.60;;;;;;5103296;28;20027;-51
2021/11/14 01:35:55;;;;;;;24.73;14.57;;;29.30;78.60;;;;;;5104731;28;20031;-49
2021/11/14 01:38:23;;;;;;;42.95;22.85;;;29.30;78.30;;;;;;5104655;28;20087;-52
2021/11/14 01:40:51;;;;;;;54.75;20.45;;;29.30;78.50;;;;;;5104795;28;20265;-48
2021/11/14 01:43:28;;;;;;;50.38;24.95;;;29.30;78.40;;;;;;5104639;28;20087;-47
2021/11/14 01:45:55;;;;;;;41.45;22.95;;;29.30;78.50;;;;;;5104583;28;20087;-53
2021/11/14 01:48:24;;;;;;;41.08;22.90;;;29.30;78.20;;;;;;5104720;28;20240;-51
2021/11/14 01:50:51;;;;;;;34.92;18.60;;;29.30;78.20;;;;;;5104140;28;20044;-48
2021/11/14 01:53:19;;;;;;;32.42;17.27;;;29.30;78.20;;;;;;5104026;28;20052;-50
2021/11/14 01:55:49;;;;;;;53.78;22.40;;;29.20;78.10;;;;;;5104653;28;20306;-53
2021/11/14 01:58:23;;;;;;;31.80;19.20;;;29.30;78.60;;;;;;5104358;28;20039;-47
2021/11/14 02:01:00;;;;;;;29.65;17.98;;;29.20;78.50;;;;;;5104003;28;20032;-50
2021/11/14 02:03:30;;;;;;;31.02;16.80;;;29.20;78.40;;;;;;5104029;28;20028;-51
2021/11/14 02:05:58;;;;;;;26.60;13.95;;;29.20;78.50;;;;;;5103656;28;20019;-53
2021/11/14 02:08:25;;;;;;;23.55;12.10;;;29.20;78.70;;;;;;5104121;28;20095;-51
2021/11/14 02:10:51;;;;;;;23.63;11.38;;;29.10;78.70;;;;;;5104050;28;20061;-54
2021/11/14 02:13:18;;;;;;;21.80;9.40;;;29.10;78.90;;;;;;5104119;28;20027;-49
2021/11/14 02:15:45;;;;;;;18.88;9.20;;;29.10;78.90;;;;;;5104117;28;20012;-51
2021/11/14 02:18:14;;;;;;;19.60;7.97;;;29.10;78.80;;;;;;5104116;28;20024;-50
2021/11/14 02:20:43;;;;;;;19.30;7.82;;;29.10;78.90;;;;;;5103705;28;20020;-54
2021/11/14 02:23:13;;;;;;;19.42;6.95;;;29.10;78.90;;;;;;5103909;28;20234;-54
2021/11/14 02:25:40;;;;;;;21.95;6.45;;;29.10;78.60;;;;;;5103915;28;20024;-51
2021/11/14 02:28:07;;;;;;;22.45;6.60;;;29.10;78.70;;;;;;5104077;28;20066;-55
2021/11/14 02:30:34;;;;;;;20.98;6.07;;;29.10;78.80;;;;;;5104190;28;20030;-50
2021/11/14 02:33:01;;;;;;;16.42;6.28;;;29.10;78.80;;;;;;5103663;28;20050;-54
2021/11/14 02:35:28;;;;;;;16.73;5.53;;;29.00;78.60;;;;;;5104009;28;20020;-54
2021/11/14 02:37:55;;;;;;;14.93;5.40;;;29.00;78.70;;;;;;5104290;28;20194;-53
2021/11/14 02:40:22;;;;;;;13.98;5.10;;;29.10;78.60;;;;;;5105193;28;20012;-54
2021/11/14 02:42:50;;;;;;;15.88;5.28;;;29.00;78.50;;;;;;5107586;28;20050;-54
2021/11/14 02:45:21;;;;;;;13.13;4.53;;;29.00;78.40;;;;;;5107688;28;20043;-48
2021/11/14 02:47:50;;;;;;;15.43;5.15;;;29.00;78.40;;;;;;5107432;28;20020;-53
2021/11/14 02:50:18;;;;;;;12.75;4.82;;;29.00;78.50;;;;;;5107596;28;20063;-54
2021/11/14 02:52:45;;;;;;;14.27;4.93;;;29.00;78.60;;;;;;5107408;28;20052;-53
2021/11/14 02:55:15;;;;;;;11.93;4.80;;;29.00;78.30;;;;;;5106819;28;20031;-52
2021/11/14 02:57:41;;;;;;;17.48;5.25;;;29.00;78.40;;;;;;5107814;28;20050;-57
2021/11/14 03:00:12;;;;;;;14.88;4.97;;;29.00;78.20;;;;;;5107281;28;20061;-53
2021/11/14 03:02:39;;;;;;;10.32;4.35;;;29.00;78.20;;;;;;5107036;28;20019;-50
2021/11/14 03:05:15;;;;;;;11.18;4.95;;;29.00;78.10;;;;;;5107289;28;20020;-53
2021/11/14 03:07:43;;;;;;;16.77;4.97;;;28.90;78.10;;;;;;5107633;28;20020;-56
2021/11/14 03:10:13;;;;;;;12.23;5.70;;;28.90;78.00;;;;;;5107340;28;20027;-54
2021/11/14 03:12:40;;;;;;;19.42;5.60;;;28.90;78.10;;;;;;5107229;28;20016;-55
2021/11/14 03:15:07;;;;;;;15.10;5.53;;;28.90;78.00;;;;;;5107095;28;20035;-55
2021/11/14 03:17:34;;;;;;;11.38;5.40;;;28.90;78.00;;;;;;5106763;28;20020;-49
2021/11/14 03:20:00;;;;;;;13.85;5.80;;;28.90;77.90;;;;;;5107234;28;20050;-48
2021/11/14 03:22:27;;;;;;;17.83;5.18;;;28.80;78.00;;;;;;5106982;28;20026;-49
2021/11/14 03:24:54;;;;;;;21.63;5.72;;;28.80;78.00;;;;;;5107075;28;20309;-50
2021/11/14 03:27:26;;;;;;;11.30;5.68;;;28.80;78.00;;;;;;5106671;28;20030;-51
2021/11/14 03:29:52;;;;;;;17.23;5.25;;;28.80;77.90;;;;;;5107370;28;20027;-59
2021/11/14 03:32:19;;;;;;;18.65;6.13;;;28.80;77.80;;;;;;5106682;28;20095;-52
2021/11/14 03:34:45;;;;;;;16.25;7.28;;;28.80;77.70;;;;;;5106718;28;20042;-52
2021/11/14 03:37:19;;;;;;;17.70;6.38;;;28.80;77.70;;;;;;5106746;28;20020;-53
2021/11/14 03:39:47;;;;;;;20.35;6.47;;;28.80;77.70;;;;;;5107176;28;20024;-56
2021/11/14 03:42:15;;;;;;;14.32;6.60;;;28.80;77.60;;;;;;5106676;28;20020;-54
2021/11/14 03:44:43;;;;;;;14.20;7.22;;;28.70;77.60;;;;;;5106862;28;20309;-55
2021/11/14 03:47:10;;;;;;;17.85;7.88;;;28.70;77.60;;;;;;5106591;28;20028;-54
2021/11/14 03:49:38;;;;;;;17.05;8.00;;;28.70;77.70;;;;;;5107069;28;20087;-54
2021/11/14 03:52:12;;;;;;;17.95;7.75;;;28.70;77.80;;;;;;5105513;28;20060;-54
2021/11/14 03:54:39;;;;;;;12.32;5.53;;;28.70;77.90;;;;;;5107133;28;20043;-51
2021/11/14 03:57:06;;;;;;;13.13;6.45;;;28.60;77.70;;;;;;5106489;28;20036;-55
2021/11/14 03:59:34;;;;;;;12.57;5.82;;;28.60;77.80;;;;;;5106838;28;20344;-56
2021/11/14 04:02:02;;;;;;;10.60;6.10;;;28.60;77.80;;;;;;5106211;28;20024;-52
2021/11/14 04:04:29;;;;;;;12.18;5.70;;;28.60;78.00;;;;;;5106876;28;20024;-50
2021/11/14 04:06:56;;;;;;;12.85;5.50;;;28.60;78.10;;;;;;5106334;28;20130;-51
2021/11/14 04:09:22;;;;;;;13.68;5.15;;;28.60;78.10;;;;;;5106896;28;20028;-55
2021/11/14 04:11:49;;;;;;;11.95;5.40;;;28.60;77.80;;;;;;5106299;28;20254;-51
2021/11/14 04:14:16;;;;;;;23.98;5.97;;;28.60;77.90;;;;;;5106645;28;20089;-57
2021/11/14 04:16:43;;;;;;;16.25;6.03;;;28.60;78.00;;;;;;5106467;28;20089;-55
2021/11/14 04:19:11;;;;;;;9.65;5.68;;;28.60;78.00;;;;;;5106256;28;20233;-56
2021/11/14 04:21:39;;;;;;;14.63;6.80;;;28.50;78.10;;;;;;5105665;28;20024;-56
2021/11/14 04:24:06;;;;;;;18.55;6.55;;;28.50;77.90;;;;;;5106145;28;20024;-52
2021/11/14 04:26:32;;;;;;;14.32;6.43;;;28.50;77.60;;;;;;5106033;28;20024;-60
2021/11/14 04:28:59;;;;;;;23.60;7.95;;;28.50;78.30;;;;;;5106477;28;20046;-56
2021/11/14 04:31:26;;;;;;;28.48;7.85;;;28.50;77.80;;;;;;5105983;28;20320;-49
2021/11/14 04:33:52;;;;;;;31.55;9.27;;;28.50;77.70;;;;;;5106175;28;20028;-54
2021/11/14 04:36:19;;;;;;;25.90;9.43;;;28.50;77.70;;;;;;5105693;28;20201;-56
2021/11/14 04:38:45;;;;;;;22.08;9.30;;;28.50;77.50;;;;;;5105755;28;20227;-51
2021/11/14 04:41:12;;;;;;;20.80;9.88;;;28.50;77.50;;;;;;5106007;28;20046;-50
2021/11/14 04:43:39;;;;;;;21.52;10.48;;;28.50;77.70;;;;;;5105431;28;20090;-54
2021/11/14 04:46:05;;;;;;;20.92;10.32;;;28.40;77.80;;;;;;5105816;28;20028;-51
2021/11/14 04:48:32;;;;;;;22.92;10.77;;;28.40;77.90;;;;;;5105293;28;20020;-56
2021/11/14 04:50:59;;;;;;;17.23;9.18;;;28.40;78.00;;;;;;5105424;28;20031;-54
2021/11/14 04:53:26;;;;;;;20.90;7.88;;;28.40;78.10;;;;;;5105424;28;20196;-57
2021/11/14 04:55:52;;;;;;;15.13;7.93;;;28.40;78.00;;;;;;5105717;28;20200;-54
2021/11/14 04:58:19;;;;;;;19.15;8.05;;;28.40;78.10;;;;;;5105866;28;20024;-55
2021/11/14 05:00:48;;;;;;;12.95;7.03;;;28.40;78.00;;;;;;5105669;28;20360;-51
2021/11/14 05:03:16;;;;;;;15.88;7.60;;;28.40;78.00;;;;;;5105120;28;20193;-51
2021/11/14 05:05:42;;;;;;;21.20;8.38;;;28.30;78.10;;;;;;5105649;28;20095;-52
2021/11/14 05:08:10;;;;;;;26.67;11.90;;;28.30;78.10;;;;;;5105260;28;20220;-52
2021/11/14 05:10:37;;;;;;;22.90;11.93;;;28.30;78.00;;;;;;5105514;28;20039;-51
2021/11/14 05:13:05;;;;;;;21.70;10.52;;;28.30;78.10;;;;;;5105352;28;20028;-55
2021/11/14 05:15:33;;;;;;;22.15;10.07;;;28.30;78.10;;;;;;5105433;28;20028;-51
2021/11/14 05:18:00;;;;;;;17.83;8.85;;;28.30;78.10;;;;;;5104794;28;20153;-55
2021/11/14 05:20:26;;;;;;;17.17;8.10;;;28.30;78.00;;;;;;5105400;28;20020;-54
2021/11/14 05:22:53;;;;;;;17.02;6.93;;;28.30;78.10;;;;;;5104783;28;20027;-48
2021/11/14 05:25:21;;;;;;;13.73;6.35;;;28.30;78.10;;;;;;5105377;28;20050;-54
2021/11/14 05:27:48;;;;;;;15.77;6.40;;;28.20;78.00;;;;;;5104781;28;20024;-56
2021/11/14 05:30:15;;;;;;;10.88;5.68;;;28.30;77.90;;;;;;5104788;28;20020;-54
2021/11/14 05:32:41;;;;;;;13.20;5.30;;;28.20;77.80;;;;;;5104655;28;20296;-48
2021/11/14 05:35:08;;;;;;;10.75;5.07;;;28.30;77.60;;;;;;5104837;28;20023;-52
2021/11/14 05:37:36;;;;;;;14.50;5.72;;;28.20;77.60;;;;;;5104626;28;20312;-55
2021/11/14 05:40:05;;;;;;;10.68;4.78;;;28.30;77.60;;;;;;5104779;28;20049;-54
2021/11/14 05:42:32;;;;;;;9.32;4.60;;;28.30;78.20;;;;;;5109533;28;20035;-58
2021/11/14 05:44:59;;;;;;;14.48;5.95;;;28.30;77.60;;;;;;5110102;28;20026;-53
2021/11/14 05:47:27;;;;;;;12.98;6.43;;;28.20;77.80;;;;;;5115605;27;20080;-53
2021/11/14 05:49:54;;;;;;;12.88;6.70;;;28.20;78.00;;;;;;5141092;27;20020;-46
2021/11/14 05:52:20;;;;;;;20.33;6.72;;;28.20;78.10;;;;;;5144801;27;20102;-50
2021/11/14 05:54:47;;;;;;;17.92;5.88;;;28.20;78.20;;;;;;5145882;27;20080;-50
2021/11/14 05:57:15;;;;;;;12.25;5.28;;;28.20;78.30;;;;;;5145558;27;20011;-52
2021/11/14 06:02:43;;;;;;;9.10;5.22;;;28.20;78.30;;;;;;5145132;27;20368;-44
2021/11/14 06:07:37;;;;;;;13.52;6.80;;;28.20;78.40;;;;;;5143192;28;20011;-50
2021/11/14 06:10:04;;;;;;;16.17;8.43;;;28.10;78.50;;;;;;5143187;28;20015;-49
2021/11/14 06:12:31;;;;;;;18.23;10.75;;;28.20;78.50;;;;;;5143221;28;20019;-53
2021/11/14 06:14:58;;;;;;;15.02;8.90;;;28.10;78.50;;;;;;5144219;27;20214;-47
2021/11/14 06:17:25;;;;;;;12.73;7.22;;;28.20;78.60;;;;;;5147377;27;20019;-49
2021/11/14 06:19:52;;;;;;;11.52;6.55;;;28.10;78.60;;;;;;5148855;27;20026;-53
2021/11/14 06:22:19;;;;;;;9.75;5.85;;;28.20;78.60;;;;;;5149501;27;20023;-47
2021/11/14 06:24:46;;;;;;;11.65;6.03;;;28.20;78.70;;;;;;5150338;27;20031;-47
2021/11/14 06:27:13;;;;;;;12.82;6.53;;;28.20;78.80;;;;;;5149340;27;20015;-47
2021/11/14 06:29:40;;;;;;;13.45;7.68;;;28.10;78.60;;;;;;5150189;27;20031;-48
2021/11/14 06:32:07;;;;;;;13.15;6.70;;;28.10;78.60;;;;;;5149417;27;20019;-51
2021/11/14 06:34:34;;;;;;;14.15;7.35;;;28.10;78.60;;;;;;5149760;27;20194;-50
2021/11/14 06:37:00;;;;;;;14.07;7.47;;;28.20;78.70;;;;;;5149349;27;20080;-51
2021/11/14 06:39:27;;;;;;;12.65;6.53;;;28.10;78.80;;;;;;5149850;27;20068;-50
2021/11/14 06:41:53;;;;;;;12.25;5.90;;;28.10;79.00;;;;;;5149565;27;20041;-50
2021/11/14 06:44:20;;;;;;;12.43;5.50;;;28.10;79.10;;;;;;5149875;27;20315;-52
2021/11/14 06:46:47;;;;;;;12.70;5.25;;;28.20;79.20;;;;;;5149428;27;20023;-54
2021/11/14 06:49:13;;;;;;;7.18;4.75;;;28.10;79.30;;;;;;5149804;27;20033;-52
2021/11/14 06:51:40;;;;;;;9.38;5.20;;;28.20;79.20;;;;;;5146960;27;20175;-54
2021/11/14 06:54:07;;;;;;;10.63;4.80;;;28.10;79.20;;;;;;5128547;28;20027;-55
2021/11/14 06:56:33;;;;;;;9.18;4.82;;;28.10;79.40;;;;;;5128621;28;20020;-50
2021/11/14 06:59:00;;;;;;;9.52;4.70;;;28.10;79.50;;;;;;5128998;28;20020;-53
2021/11/14 07:01:26;;;;;;;10.45;4.72;;;28.10;79.60;;;;;;5128622;28;20012;-52
2021/11/14 07:03:53;;;;;;;5.88;4.18;;;28.10;79.80;;;;;;5128607;28;20023;-56
2021/11/14 07:06:19;;;;;;;10.95;4.15;;;28.10;79.90;;;;;;5128399;28;20019;-49
2021/11/14 07:08:46;;;;;;;8.38;4.63;;;28.10;80.10;;;;;;5128546;28;20034;-50
2021/11/14 07:11:13;;;;;;;6.53;4.40;;;28.10;80.20;;;;;;5127282;28;20020;-52
2021/11/14 07:13:40;;;;;;;8.55;4.50;;;28.10;80.40;;;;;;5127691;28;20045;-54
2021/11/14 07:16:07;;;;;;;10.13;4.53;;;28.10;80.50;;;;;;5109232;28;20012;-54
2021/11/14 07:18:33;;;;;;;9.73;4.25;;;28.10;80.50;;;;;;5127190;28;20023;-52
2021/11/14 07:21:00;;;;;;;10.00;4.72;;;28.00;80.40;;;;;;5127328;28;20360;-51
2021/11/14 07:23:26;;;;;;;9.85;4.70;;;28.10;80.60;;;;;;5127750;28;20061;-52
2021/11/14 07:25:53;;;;;;;9.65;4.78;;;28.10;80.60;;;;;;5127377;28;20027;-54
2021/11/14 07:28:20;;;;;;;10.93;5.00;;;28.10;80.60;;;;;;5127057;28;20136;-56
2021/11/14 07:30:46;;;;;;;9.50;4.90;;;28.10;80.60;;;;;;5128022;28;20046;-53
2021/11/14 07:33:13;;;;;;;9.30;4.38;;;28.10;80.50;;;;;;5127628;28;20027;-52
2021/11/14 07:35:40;;;;;;;6.57;4.32;;;28.10;80.50;;;;;;5127973;28;20264;-52
2021/11/14 07:38:07;;;;;;;6.57;4.32;;;28.10;80.50;;;;;;5127702;28;20047;-46
2021/11/14 07:40:33;;;;;;;9.52;5.28;;;28.00;80.50;;;;;;5127415;28;20007;-46
2021/11/14 07:43:01;;;;;;;13.48;6.95;;;28.00;80.60;;;;;;5127523;28;20105;-51
2021/11/14 07:45:28;;;;;;;8.82;5.47;;;28.00;80.60;;;;;;5127792;28;20364;-54
2021/11/14 07:47:56;;;;;;;7.93;5.00;;;28.00;80.70;;;;;;5127343;28;20102;-51
2021/11/14 07:50:27;;;;;;;20.90;5.85;;;28.00;80.40;;;;;;5126947;28;20019;-54
2021/11/14 07:52:55;;;;;;;12.55;5.00;;;28.00;80.50;;;;;;5138925;27;20319;-51
2021/11/14 07:55:21;;;;;;;14.10;4.57;;;28.00;80.60;;;;;;5147492;27;20015;-53
2021/11/14 07:57:48;;;;;;;9.70;4.88;;;28.00;80.50;;;;;;5147421;27;20078;-52
2021/11/14 08:00:18;;;;;;;11.60;4.90;;;28.00;80.50;;;;;;5147334;27;20311;-54
2021/11/14 08:02:45;;;;;;;10.35;4.93;;;28.00;80.40;;;;;;5147046;27;20015;-58
2021/11/14 08:05:12;;;;;;;12.32;5.90;;;28.00;80.30;;;;;;5147729;27;20015;-53
2021/11/14 08:07:39;;;;;;;15.27;6.60;;;28.00;80.30;;;;;;5147095;27;20048;-57
2021/11/14 08:10:07;;;;;;;12.88;7.22;;;28.00;80.30;;;;;;5147017;27;20176;-51
2021/11/14 08:12:34;;;;;;;14.07;7.50;;;28.00;80.20;;;;;;5147021;27;20007;-52
2021/11/14 08:15:01;;;;;;;10.77;7.63;;;28.00;80.20;;;;;;5146863;27;20046;-55
2021/11/14 08:17:27;;;;;;;11.43;7.70;;;28.00;80.10;;;;;;5146783;27;20038;-54
2021/11/14 08:19:58;;;;;;;11.75;7.68;;;27.90;80.20;;;;;;5138500;27;20027;-52
2021/11/14 08:22:24;;;;;;;11.70;6.72;;;27.90;80.40;;;;;;5146835;27;20176;-52
2021/11/14 08:24:51;;;;;;;10.90;5.65;;;27.90;80.30;;;;;;5147018;27;20036;-55
2021/11/14 08:27:17;;;;;;;9.52;5.43;;;27.90;80.20;;;;;;5146991;27;20019;-53
2021/11/14 08:29:44;;;;;;;9.32;5.13;;;27.90;80.20;;;;;;5147155;27;20041;-57
2021/11/14 08:32:10;;;;;;;11.50;4.95;;;27.90;80.50;;;;;;5146729;27;20208;-58
2021/11/14 08:34:37;;;;;;;11.05;5.10;;;27.80;80.20;;;;;;5147121;27;20092;-50
2021/11/14 08:37:04;;;;;;;11.77;5.70;;;27.80;80.20;;;;;;5146643;27;20015;-55
2021/11/14 08:39:31;;;;;;;8.68;5.18;;;27.80;80.40;;;;;;5146391;27;20327;-53
2021/11/14 08:41:57;;;;;;;11.75;4.70;;;27.80;80.40;;;;;;5146493;27;20019;-55
2021/11/14 08:44:25;;;;;;;14.85;4.70;;;27.80;80.60;;;;;;5146727;27;20094;-55
2021/11/14 08:46:53;;;;;;;13.02;4.70;;;27.80;80.60;;;;;;5146118;27;20211;-54
2021/11/14 08:49:19;;;;;;;10.57;4.63;;;27.80;80.60;;;;;;5146346;27;20018;-55
2021/11/14 08:51:47;;;;;;;9.30;5.00;;;27.80;80.50;;;;;;5146057;27;21005;-55
2021/11/14 08:54:13;;;;;;;13.52;5.00;;;27.80;80.30;;;;;;5146460;27;20339;-53
2021/11/14 08:56:40;;;;;;;12.82;5.43;;;27.80;80.20;;;;;;5146184;27;20026;-54
2021/11/14 08:59:08;;;;;;;11.43;5.50;;;27.80;80.00;;;;;;5146597;27;20251;-58
2021/11/14 09:01:36;;;;;;;21.83;5.65;;;27.80;80.10;;;;;;5145842;27;20019;-51
2021/11/14 09:04:03;;;;;;;11.45;5.88;;;27.80;79.90;;;;;;5146363;27;20258;-52
2021/11/14 09:06:30;;;;;;;11.90;6.22;;;27.80;79.90;;;;;;5146069;27;20352;-56
2021/11/14 09:08:57;;;;;;;10.95;5.47;;;27.80;79.70;;;;;;5146020;27;20327;-51
2021/11/14 09:11:24;;;;;;;10.02;5.50;;;27.80;79.60;;;;;;5127600;27;20308;-52
2021/11/14 09:13:51;;;;;;;11.88;5.28;;;27.80;79.10;;;;;;5145971;27;20334;-52
2021/11/14 09:16:18;;;;;;;8.27;5.05;;;27.80;78.90;;;;;;5145946;27;20305;-51
2021/11/14 09:18:45;;;;;;;8.40;4.75;;;27.80;78.60;;;;;;5146038;27;20026;-53
2021/11/14 09:21:12;;;;;;;9.23;4.68;;;27.80;78.50;;;;;;5145722;27;20323;-54
2021/11/14 09:23:39;;;;;;;9.95;4.85;;;27.80;78.20;;;;;;5145800;27;20031;-54
2021/11/14 09:26:08;;;;;;;10.07;4.70;;;27.80;78.00;;;;;;5145519;27;20239;-51
2021/11/14 09:28:34;;;;;;;9.27;4.40;;;27.80;77.80;;;;;;5145774;27;20337;-51
2021/11/14 09:31:01;;;;;;;7.40;3.90;;;27.80;77.60;;;;;;5145323;27;20027;-52
2021/11/14 09:33:28;;;;;;;7.93;4.05;;;27.80;77.50;;;;;;5145620;27;20087;-52
2021/11/14 09:35:55;;;;;;;8.07;4.10;;;27.80;77.10;;;;;;5145531;27;20023;-53
2021/11/14 09:38:22;;;;;;;7.53;4.00;;;27.80;76.90;;;;;;5145815;27;20022;-55
2021/11/14 09:40:49;;;;;;;7.18;3.80;;;27.80;76.70;;;;;;5145437;27;20072;-49
2021/11/14 09:43:18;;;;;;;6.45;4.13;;;27.70;76.50;;;;;;5145502;27;20086;-51
2021/11/14 09:45:45;;;;;;;9.20;4.32;;;27.70;76.20;;;;;;5145513;27;20025;-54
2021/11/14 09:48:11;;;;;;;5.55;3.63;;;27.70;76.10;;;;;;5145625;27;20027;-51
2021/11/14 09:50:38;;;;;;;10.15;3.70;;;27.70;76.00;;;;;;5144824;27;20030;-55
2021/11/14 09:53:06;;;;;;;4.38;3.50;;;27.70;75.90;;;;;;5145137;27;20102;-54
2021/11/14 09:55:36;;;;;;;9.70;3.95;;;27.70;75.90;;;;;;5145408;27;20023;-57
2021/11/14 09:58:04;;;;;;;6.65;3.58;;;27.70;75.80;;;;;;5145143;27;20176;-51
2021/11/14 10:00:32;;;;;;;8.00;3.55;;;27.70;75.80;;;;;;5145249;27;20244;-55
2021/11/14 10:02:59;;;;;;;8.27;3.80;;;27.70;75.70;;;;;;5145281;27;20024;-53
2021/11/14 10:05:25;;;;;;;8.35;4.50;;;27.70;75.60;;;;;;5145018;28;20026;-61
2021/11/14 10:07:57;;;;;;;13.40;4.40;;;27.70;75.70;;;;;;5145293;28;20263;-54
2021/11/14 10:10:29;;;;;;;12.65;4.72;;;27.70;75.90;;;;;;5144899;28;20023;-53
2021/11/14 10:12:57;;;;;;;10.38;4.43;;;27.70;76.00;;;;;;5145146;28;20034;-51
2021/11/14 10:15:25;;;;;;;9.10;4.07;;;27.70;76.10;;;;;;5144882;28;20172;-51
2021/11/14 10:17:59;;;;;;;12.13;4.00;;;27.70;76.20;;;;;;5145302;28;20026;-51
2021/11/14 10:20:31;;;;;;;11.35;3.97;;;27.60;76.20;;;;;;5144924;28;20113;-54
2021/11/14 10:23:12;;;;;;;7.65;4.05;;;27.60;76.20;;;;;;5144939;28;20349;-52
2021/11/14 10:25:39;;;;;;;12.18;4.68;;;27.60;76.20;;;;;;5144840;28;20066;-50
2021/11/14 10:28:06;;;;;;;13.32;4.32;;;27.60;76.20;;;;;;5145476;28;20375;-57
2021/11/14 10:30:37;;;;;;;7.28;4.22;;;27.60;76.40;;;;;;5144870;28;20015;-52
2021/11/14 10:33:07;;;;;;;9.93;4.50;;;27.60;76.40;;;;;;5144737;28;20030;-56
2021/11/14 10:35:36;;;;;;;10.70;4.63;;;27.60;76.70;;;;;;5145312;28;20078;-54
2021/11/14 10:38:05;;;;;;;9.38;5.25;;;27.60;77.10;;;;;;5145100;28;20015;-52
2021/11/14 10:40:37;;;;;;;10.43;4.82;;;27.60;77.50;;;;;;5144648;28;20022;-52
2021/11/14 10:43:06;;;;;;;11.70;5.53;;;27.50;77.80;;;;;;5144685;28;20057;-50
2021/11/14 10:45:37;;;;;;;13.23;5.80;;;27.60;78.30;;;;;;5145091;28;20050;-55
2021/11/14 10:48:10;;;;;;;13.88;5.60;;;27.60;78.60;;;;;;5144637;28;20054;-54
2021/11/14 10:50:43;;;;;;;13.32;5.43;;;27.50;78.80;;;;;;5145065;28;20023;-53
2021/11/14 10:53:13;;;;;;;16.80;5.22;;;27.50;79.20;;;;;;5144585;28;20069;-49
2021/11/14 10:55:43;;;;;;;12.05;4.78;;;27.50;80.00;;;;;;5145180;28;20019;-55
2021/11/14 10:58:10;;;;;;;8.40;5.43;;;27.50;79.60;;;;;;5144598;28;20023;-56
2021/11/14 11:00:38;;;;;;;17.30;5.97;;;27.50;79.90;;;;;;5144367;27;20045;-56
2021/11/14 11:03:07;;;;;;;17.60;6.28;;;27.60;80.10;;;;;;5148274;27;20052;-50
2021/11/14 11:05:34;;;;;;;14.32;5.13;;;27.50;80.10;;;;;;5148099;27;20027;-50
2021/11/14 11:08:05;;;;;;;11.50;6.10;;;27.60;80.20;;;;;;5148311;27;20094;-52
2021/11/14 11:10:59;;;;;;;20.33;6.20;;;27.50;80.40;;;;;;5147908;27;20026;-52
2021/11/14 11:13:38;;;;;;;11.68;5.95;;;27.60;80.60;;;;;;5145364;27;20098;-51
2021/11/14 11:16:11;;;;;;;10.20;4.70;;;27.60;80.70;;;;;;5148101;27;20081;-54
2021/11/14 11:18:38;;;;;;;14.15;4.88;;;27.60;80.60;;;;;;5148004;27;20314;-52
2021/11/14 11:21:06;;;;;;;9.10;4.60;;;27.60;80.60;;;;;;5147985;27;20023;-57
2021/11/14 11:23:45;;;;;;;15.45;5.18;;;27.60;80.30;;;;;;5148101;27;20031;-56
2021/11/14 11:26:14;;;;;;;14.23;5.40;;;27.60;80.30;;;;;;5147979;27;20056;-55
2021/11/14 11:28:44;;;;;;;18.13;5.40;;;27.60;80.30;;;;;;5148129;27;20301;-55
2021/11/14 11:31:14;;;;;;;17.95;5.47;;;27.60;80.20;;;;;;5147778;27;20212;-51
2021/11/14 11:33:45;;;;;;;31.58;6.40;;;27.70;80.30;;;;;;5148005;27;20023;-57
2021/11/14 11:36:13;;;;;;;12.98;4.70;;;27.70;80.30;;;;;;5147867;27;20051;-55
2021/11/14 11:38:43;;;;;;;14.80;5.10;;;27.70;80.60;;;;;;5147897;27;20091;-51
2021/11/14 11:41:11;;;;;;;15.20;5.53;;;27.70;80.30;;;;;;5147926;27;20034;-51
2021/11/14 11:43:40;;;;;;;15.35;5.22;;;27.70;80.20;;;;;;5147679;27;20326;-51
2021/11/14 11:46:18;;;;;;;12.35;5.22;;;27.70;80.10;;;;;;5148020;27;20074;-51
2021/11/14 11:48:54;;;;;;;10.38;5.05;;;27.70;80.10;;;;;;5147931;27;20135;-51
2021/11/14 11:51:29;;;;;;;14.25;4.65;;;27.70;80.00;;;;;;5147574;27;20018;-58
2021/11/14 11:53:59;;;;;;;13.27;5.10;;;27.80;80.10;;;;;;5118909;28;20077;-53
2021/11/14 11:56:42;;;;;;;12.20;4.80;;;27.80;80.00;;;;;;5126761;28;20015;-52
2021/11/14 11:59:14;;;;;;;;;;;27.80;80.20;;;;;;5127643;28;20312;-55
2021/11/14 12:01:47;;;;;;;24.77;5.57;;;27.80;80.30;;;;;;5126478;28;19971;-52
2021/11/14 12:04:19;;;;;;;11.20;5.28;;;27.80;80.70;;;;;;5127017;28;20033;-54
2021/11/14 12:07:00;;;;;;;21.20;5.57;;;27.90;80.70;;;;;;5126572;28;20083;-55
2021/11/14 12:09:48;;;;;;;30.48;5.80;;;27.90;81.10;;;;;;5126705;28;20039;-52
2021/11/14 12:12:25;;;;;;;20.90;5.22;;;27.80;81.00;;;;;;5125763;28;20019;-51
2021/11/14 12:15:16;;;;;;;24.90;6.13;;;27.90;80.90;;;;;;5126882;28;20152;-51
2021/11/14 12:18:01;;;;;;;19.48;5.50;;;27.90;81.00;;;;;;5126422;28;20056;-49
2021/11/14 12:20:47;;;;;;;16.88;5.65;;;27.90;80.90;;;;;;5126096;28;20011;-55
2021/11/14 12:23:27;;;;;;;22.73;6.70;;;28.00;80.90;;;;;;5126422;28;20073;-52
2021/11/14 12:25:57;;;;;;;18.42;5.85;;;28.00;80.90;;;;;;5117609;28;20033;-55
2021/11/14 12:28:32;;;;;;;16.48;6.53;;;28.00;80.90;;;;;;5126130;28;20031;-51
2021/11/14 12:31:08;;;;;;;19.80;6.53;;;28.00;81.00;;;;;;5125907;28;20016;-58
2021/11/14 12:33:48;;;;;;;12.82;5.85;;;28.10;80.70;;;;;;5125959;28;20038;-52
2021/11/14 12:36:33;;;;;;;16.10;6.05;;;28.10;80.80;;;;;;5125730;28;20022;-53
2021/11/14 12:39:18;;;;;;;21.15;6.20;;;28.10;80.70;;;;;;5125996;28;20043;-52
2021/11/14 12:41:53;;;;;;;21.98;5.82;;;28.20;81.20;;;;;;5125380;28;20085;-57
2021/11/14 12:44:33;;;;;;;23.70;5.72;;;28.20;80.90;;;;;;5126040;28;20053;-55
2021/11/14 12:47:02;;;;;;;19.75;5.88;;;28.20;80.80;;;;;;5125681;28;20020;-52
2021/11/14 12:49:37;;;;;;;14.75;4.95;;;28.30;80.90;;;;;;5125929;28;20104;-50